createdAt,value
2017-10-01T00:00:20.910Z,69.5
2017-10-01T00:01:20.352Z,69.6
2017-10-01T00:02:19.698Z,69.8
2017-10-01T00:03:19.121Z,69.9
2017-10-01T00:04:18.173Z,70.1
2017-10-01T00:05:17.609Z,70.1
2017-10-01T00:06:16.411Z,70.1
2017-10-01T00:07:15.590Z,70.3
2017-10-01T00:08:14.774Z,70.3
2017-10-01T00:09:14.080Z,70.3
2017-10-01T00:10:13.507Z,70.3
2017-10-01T00:11:12.692Z,70.3
2017-10-01T00:12:11.878Z,70.3
2017-10-01T00:13:10.935Z,70.4
2017-10-01T00:14:10.612Z,70.5
2017-10-01T00:15:09.673Z,71.5
2017-10-01T00:16:08.984Z,71.7
2017-10-01T00:17:07.791Z,71.8
2017-10-01T00:18:07.594Z,72.5
2017-10-01T00:19:06.269Z,72.5
2017-10-01T00:20:06.339Z,74.1
2017-10-01T00:20:36.317Z,74.1
2017-10-01T00:21:06.812Z,75.4
2017-10-01T00:21:36.926Z,75.4
2017-10-01T00:23:03.656Z,77.5
2017-10-01T00:23:34.148Z,77.5
2017-10-01T00:25:02.012Z,79
2017-10-01T00:26:01.321Z,79
2017-10-01T00:27:00.632Z,79
2017-10-01T00:28:00.074Z,79.9
2017-10-01T00:28:59.375Z,80.1
2017-10-01T00:29:58.434Z,80.6
2017-10-01T00:30:57.618Z,81.1
2017-10-01T00:31:56.921Z,81
2017-10-01T00:32:56.109Z,81.7
2017-10-01T00:33:55.288Z,82
2017-10-01T00:34:54.722Z,82.1
2017-10-01T00:36:53.045Z,82.9
2017-10-01T00:37:52.479Z,82.8
2017-10-01T00:38:51.540Z,82.9
2017-10-01T00:39:50.597Z,83
2017-10-01T00:40:50.286Z,82.7
2017-10-01T00:41:49.329Z,82.9
2017-10-01T00:42:48.635Z,82.8
2017-10-01T00:43:47.938Z,82.8
2017-10-01T00:44:47.120Z,82.8
2017-10-01T00:45:46.431Z,83.1
2017-10-01T00:46:45.485Z,83.1
2017-10-01T00:47:44.788Z,83.3
2017-10-01T00:48:43.836Z,83.2
2017-10-01T00:49:43.404Z,83.1
2017-10-01T00:50:42.593Z,83.3
2017-10-01T00:51:42.028Z,83.2
2017-10-01T00:52:41.341Z,83
2017-10-01T00:53:11.454Z,83
2017-10-01T00:53:41.708Z,82.9
2017-10-01T00:54:11.953Z,82.9
2017-10-01T00:55:38.813Z,82.6
2017-10-01T00:56:38.122Z,82.6
2017-10-01T00:57:37.301Z,82.7
2017-10-01T00:58:36.481Z,82.6
2017-10-01T00:59:35.910Z,82.7
2017-10-01T01:00:34.846Z,83
2017-10-01T01:01:34.406Z,83
2017-10-01T01:02:05.034Z,83
2017-10-01T01:02:35.801Z,83
2017-10-01T01:03:32.459Z,83
2017-10-01T01:04:31.893Z,83.2
2017-10-01T01:05:30.953Z,83.3
2017-10-01T01:06:30.768Z,83.1
2017-10-01T01:07:29.443Z,83.2
2017-10-01T01:08:28.878Z,83.2
2017-10-01T01:09:28.189Z,83.6
2017-10-01T01:10:27.368Z,83.6
2017-10-01T01:11:26.801Z,83.9
2017-10-01T01:12:26.107Z,83.7
2017-10-01T01:13:25.288Z,83.9
2017-10-01T01:15:23.481Z,84.1
2017-10-01T01:16:22.794Z,84.2
2017-10-01T01:17:22.101Z,84.3
2017-10-01T01:18:21.410Z,84.4
2017-10-01T01:19:20.594Z,84.4
2017-10-01T01:20:19.780Z,84.4
2017-10-01T01:21:19.223Z,84.3
2017-10-01T01:22:18.282Z,84.1
2017-10-01T01:23:17.343Z,84.1
2017-10-01T01:24:16.521Z,84.1
2017-10-01T01:25:15.576Z,84.2
2017-10-01T01:26:15.386Z,84.1
2017-10-01T01:27:14.687Z,83.9
2017-10-01T01:28:13.621Z,83.9
2017-10-01T01:29:12.928Z,83.9
2017-10-01T01:30:11.976Z,83.8
2017-10-01T01:31:11.281Z,83.7
2017-10-01T01:32:10.589Z,83.7
2017-10-01T01:33:09.642Z,83.6
2017-10-01T01:34:08.951Z,83.5
2017-10-01T01:35:07.882Z,83.4
2017-10-01T01:36:07.689Z,83.2
2017-10-01T01:37:06.998Z,83.2
2017-10-01T01:38:05.801Z,83.2
2017-10-01T01:39:04.980Z,83
2017-10-01T01:40:04.535Z,82.9
2017-10-01T01:41:03.852Z,82.5
2017-10-01T01:42:02.660Z,82.5
2017-10-01T01:43:01.840Z,82.4
2017-10-01T01:44:01.281Z,82.4
2017-10-01T01:45:00.337Z,82.3
2017-10-01T01:45:59.766Z,82.1
2017-10-01T01:46:58.702Z,82
2017-10-01T01:48:57.266Z,81.9
2017-10-01T01:49:56.694Z,81.9
2017-10-01T01:50:56.129Z,81.9
2017-10-01T01:51:55.438Z,81.9
2017-10-01T01:52:54.361Z,81.4
2017-10-01T01:53:53.663Z,81.3
2017-10-01T01:55:52.224Z,81.3
2017-10-01T01:56:51.281Z,81.4
2017-10-01T01:57:50.333Z,81.3
2017-10-01T01:58:49.638Z,81.3
2017-10-01T01:59:48.944Z,81.1
2017-10-01T02:00:47.999Z,81
2017-10-01T02:01:47.055Z,81.1
2017-10-01T02:02:46.855Z,81.1
2017-10-01T02:03:45.906Z,81.1
2017-10-01T02:04:44.841Z,81.2
2017-10-01T02:05:44.164Z,81.1
2017-10-01T02:06:43.713Z,81
2017-10-01T02:07:42.893Z,81
2017-10-01T02:08:42.202Z,80.9
2017-10-01T02:09:40.871Z,80.8
2017-10-01T02:10:40.565Z,81
2017-10-01T02:11:39.746Z,80.9
2017-10-01T02:12:38.800Z,80.9
2017-10-01T02:13:38.238Z,80.9
2017-10-01T02:14:37.168Z,80.8
2017-10-01T02:15:36.476Z,80.8
2017-10-01T02:16:35.788Z,80.6
2017-10-01T02:17:35.104Z,80.7
2017-10-01T02:18:34.411Z,80.7
2017-10-01T02:19:33.587Z,80.7
2017-10-01T02:20:32.513Z,80.7
2017-10-01T02:21:31.945Z,80.6
2017-10-01T02:22:31.001Z,80.7
2017-10-01T02:23:30.310Z,80.7
2017-10-01T02:24:29.497Z,80.6
2017-10-01T02:25:28.806Z,80.7
2017-10-01T02:26:27.986Z,80.6
2017-10-01T02:27:27.296Z,80.6
2017-10-01T02:28:26.479Z,80.8
2017-10-01T02:29:25.658Z,80.9
2017-10-01T02:29:56.033Z,80.9
2017-10-01T02:31:24.029Z,80.9
2017-10-01T02:32:23.339Z,81
2017-10-01T02:33:22.519Z,81.1
2017-10-01T02:34:21.703Z,81.1
2017-10-01T02:35:21.032Z,81
2017-10-01T02:36:20.082Z,81
2017-10-01T02:37:19.519Z,81.2
2017-10-01T02:38:18.571Z,81.3
2017-10-01T02:39:18.006Z,81.2
2017-10-01T02:40:17.059Z,81.4
2017-10-01T02:40:47.425Z,81.4
2017-10-01T02:41:17.795Z,81.8
2017-10-01T02:41:48.037Z,81.8
2017-10-01T02:42:18.663Z,82.1
2017-10-01T02:43:14.571Z,82.1
2017-10-01T02:44:14.127Z,83.2
2017-10-01T02:45:13.592Z,83.9
2017-10-01T02:46:12.390Z,84.3
2017-10-01T02:47:11.961Z,84.5
2017-10-01T02:48:10.776Z,84.5
2017-10-01T02:49:10.105Z,84.8
2017-10-01T02:50:09.541Z,85.3
2017-10-01T02:51:08.734Z,85.6
2017-10-01T02:52:07.422Z,86.2
2017-10-01T02:53:07.244Z,86.3
2017-10-01T02:54:05.934Z,86.3
2017-10-01T02:55:05.241Z,86.8
2017-10-01T02:56:04.430Z,86.9
2017-10-01T02:57:03.750Z,87.2
2017-10-01T02:58:03.052Z,87.3
2017-10-01T02:59:02.358Z,87.5
2017-10-01T03:00:01.037Z,87.8
2017-10-01T03:01:00.593Z,87.9
2017-10-01T03:02:00.033Z,87.9
2017-10-01T03:02:59.094Z,87.8
2017-10-01T03:03:58.144Z,87.9
2017-10-01T03:04:57.461Z,88.1
2017-10-01T03:05:56.513Z,88.1
2017-10-01T03:06:55.813Z,88.3
2017-10-01T03:07:54.987Z,88.3
2017-10-01T03:08:54.168Z,88.3
2017-10-01T03:09:53.353Z,88.4
2017-10-01T03:10:52.527Z,88.2
2017-10-01T03:11:51.840Z,88.3
2017-10-01T03:12:51.016Z,88.1
2017-10-01T03:13:50.063Z,88.1
2017-10-01T03:14:49.867Z,88.3
2017-10-01T03:15:48.793Z,88.4
2017-10-01T03:16:47.723Z,88.4
2017-10-01T03:17:47.278Z,88.4
2017-10-01T03:18:46.586Z,88.4
2017-10-01T03:19:45.378Z,88.4
2017-10-01T03:20:44.679Z,88.5
2017-10-01T03:21:43.860Z,88.6
2017-10-01T03:22:43.287Z,88.6
2017-10-01T03:23:13.919Z,88.6
2017-10-01T03:24:41.661Z,88.3
2017-10-01T03:25:41.222Z,88.2
2017-10-01T03:26:40.151Z,88.2
2017-10-01T03:27:39.462Z,88.1
2017-10-01T03:28:38.400Z,88.3
2017-10-01T03:29:37.449Z,88.4
2017-10-01T03:30:36.754Z,88.4
2017-10-01T03:31:35.808Z,88.2
2017-10-01T03:32:35.493Z,88.2
2017-10-01T03:33:34.309Z,88.6
2017-10-01T03:34:04.927Z,88.6
2017-10-01T03:34:35.291Z,88.3
2017-10-01T03:35:32.580Z,88.1
2017-10-01T03:38:30.666Z,88.8
2017-10-01T03:39:29.592Z,88.8
2017-10-01T03:40:28.775Z,88.9
2017-10-01T03:41:28.078Z,88.9
2017-10-01T03:42:27.388Z,89.1
2017-10-01T03:43:26.698Z,89.2
2017-10-01T03:44:25.877Z,89.4
2017-10-01T03:45:25.188Z,89.3
2017-10-01T03:46:24.495Z,89.5
2017-10-01T03:47:23.296Z,89.6
2017-10-01T03:48:22.727Z,89.9
2017-10-01T03:49:21.910Z,90.1
2017-10-01T03:50:21.218Z,90.3
2017-10-01T03:51:20.514Z,90.3
2017-10-01T03:52:19.698Z,90.3
2017-10-01T03:53:18.754Z,90.5
2017-10-01T03:54:18.191Z,90.6
2017-10-01T03:55:17.252Z,90.9
2017-10-01T03:56:16.058Z,91
2017-10-01T03:58:14.504Z,91.2
2017-10-01T03:59:13.809Z,91.2
2017-10-01T04:00:13.371Z,91.3
2017-10-01T04:01:12.551Z,91.4
2017-10-01T04:02:11.602Z,91.5
2017-10-01T04:03:10.781Z,91.7
2017-10-01T04:04:10.091Z,91.8
2017-10-01T04:05:09.153Z,91.9
2017-10-01T04:06:08.469Z,91.8
2017-10-01T04:07:07.403Z,91.8
2017-10-01T04:08:06.832Z,91.9
2017-10-01T04:09:06.009Z,92
2017-10-01T04:10:05.321Z,91.8
2017-10-01T04:11:04.129Z,92
2017-10-01T04:12:03.302Z,92.2
2017-10-01T04:13:03.128Z,92.4
2017-10-01T04:14:01.932Z,92.5
2017-10-01T04:15:00.982Z,92.6
2017-10-01T04:16:00.294Z,92.7
2017-10-01T04:16:59.218Z,92.7
2017-10-01T04:17:58.780Z,92.5
2017-10-01T04:18:58.090Z,92.7
2017-10-01T04:19:57.140Z,92.8
2017-10-01T04:20:56.565Z,92.9
2017-10-01T04:21:55.748Z,93
2017-10-01T04:22:54.925Z,93.1
2017-10-01T04:24:52.981Z,93.2
2017-10-01T04:25:52.540Z,93.3
2017-10-01T04:26:51.225Z,93.3
2017-10-01T04:27:50.666Z,93.3
2017-10-01T04:28:49.723Z,93.3
2017-10-01T04:29:49.527Z,93.2
2017-10-01T04:30:48.586Z,93.2
2017-10-01T04:32:46.525Z,93.4
2017-10-01T04:33:45.973Z,93.5
2017-10-01T04:34:45.149Z,93.5
2017-10-01T04:35:44.324Z,93.7
2017-10-01T04:37:42.893Z,93.9
2017-10-01T04:38:41.816Z,93.9
2017-10-01T04:39:41.012Z,93.9
2017-10-01T04:40:40.450Z,94
2017-10-01T04:41:39.630Z,94
2017-10-01T04:42:38.817Z,94
2017-10-01T04:43:38.121Z,93.8
2017-10-01T04:44:37.055Z,93.8
2017-10-01T04:45:36.232Z,93.9
2017-10-01T04:46:35.666Z,93.9
2017-10-01T04:47:34.850Z,94.1
2017-10-01T04:48:34.149Z,94.1
2017-10-01T04:49:33.199Z,94.3
2017-10-01T04:50:32.134Z,94.5
2017-10-01T04:51:31.314Z,94.6
2017-10-01T04:52:30.624Z,94.6
2017-10-01T04:53:30.064Z,94.6
2017-10-01T04:54:29.384Z,94.8
2017-10-01T04:55:28.193Z,95
2017-10-01T04:56:27.374Z,95
2017-10-01T04:57:26.431Z,95.1
2017-10-01T04:58:25.730Z,95.1
2017-10-01T04:59:25.157Z,95.2
2017-10-01T05:00:24.335Z,95.1
2017-10-01T05:01:23.764Z,95.2
2017-10-01T05:02:23.110Z,95.3
2017-10-01T05:03:22.161Z,95.4
2017-10-01T05:04:20.839Z,95.8
2017-10-01T05:05:20.267Z,96.1
2017-10-01T05:06:19.576Z,96.1
2017-10-01T05:07:19.003Z,96.2
2017-10-01T05:08:17.802Z,96.2
2017-10-01T05:09:16.863Z,96
2017-10-01T05:10:16.573Z,96
2017-10-01T05:11:15.500Z,96
2017-10-01T05:13:13.695Z,96.3
2017-10-01T05:14:12.687Z,96.3
2017-10-01T05:15:12.504Z,96.4
2017-10-01T05:16:11.678Z,96.5
2017-10-01T05:17:10.484Z,96.5
2017-10-01T05:18:10.046Z,96.5
2017-10-01T05:19:09.101Z,96.6
2017-10-01T05:20:08.038Z,96.6
2017-10-01T05:21:07.612Z,96.7
2017-10-01T05:22:06.408Z,96.7
2017-10-01T05:23:05.854Z,96.7
2017-10-01T05:24:05.161Z,96.7
2017-10-01T05:25:04.210Z,96.6
2017-10-01T05:26:03.268Z,96.6
2017-10-01T05:27:02.451Z,96.6
2017-10-01T05:28:01.521Z,96.6
2017-10-01T05:29:00.705Z,96.4
2017-10-01T05:30:00.518Z,96.3
2017-10-01T05:30:59.437Z,96.3
2017-10-01T05:31:58.370Z,96.1
2017-10-01T05:32:57.555Z,95.7
2017-10-01T05:33:56.736Z,95.8
2017-10-01T05:34:55.915Z,95.7
2017-10-01T05:35:55.598Z,95.8
2017-10-01T05:36:54.277Z,95.9
2017-10-01T05:37:53.711Z,95.9
2017-10-01T05:38:53.019Z,95.8
2017-10-01T05:39:51.837Z,95.8
2017-10-01T05:40:51.267Z,95.8
2017-10-01T05:41:50.451Z,95.9
2017-10-01T05:42:49.631Z,96.1
2017-10-01T05:43:48.811Z,96
2017-10-01T05:44:48.240Z,96.2
2017-10-01T05:45:47.043Z,96.2
2017-10-01T05:46:46.094Z,96.4
2017-10-01T05:47:45.528Z,96.4
2017-10-01T05:48:44.586Z,96.4
2017-10-01T05:49:44.142Z,96.5
2017-10-01T05:50:43.566Z,96.6
2017-10-01T05:51:42.374Z,96.6
2017-10-01T05:52:41.430Z,96.7
2017-10-01T05:53:40.608Z,96.7
2017-10-01T05:54:39.661Z,96.8
2017-10-01T05:55:38.961Z,96.9
2017-10-01T05:56:38.142Z,96.9
2017-10-01T05:57:37.451Z,96.9
2017-10-01T05:58:36.632Z,97
2017-10-01T06:00:34.960Z,97.2
2017-10-01T06:01:34.137Z,97.3
2017-10-01T06:02:33.693Z,97.3
2017-10-01T06:03:32.372Z,97.3
2017-10-01T06:04:31.927Z,97.4
2017-10-01T06:05:30.976Z,97.4
2017-10-01T06:06:30.275Z,97.5
2017-10-01T06:07:29.332Z,97.5
2017-10-01T06:08:28.516Z,97.6
2017-10-01T06:09:27.949Z,97.6
2017-10-01T06:10:26.626Z,97.6
2017-10-01T06:11:26.183Z,97.6
2017-10-01T06:12:25.618Z,97.6
2017-10-01T06:13:24.290Z,97.7
2017-10-01T06:14:23.474Z,97.7
2017-10-01T06:15:22.784Z,97.7
2017-10-01T06:16:21.837Z,97.7
2017-10-01T06:17:21.274Z,97.7
2017-10-01T06:18:20.581Z,97.7
2017-10-01T06:19:19.765Z,97.7
2017-10-01T06:20:18.699Z,97.7
2017-10-01T06:21:18.257Z,97.7
2017-10-01T06:22:17.065Z,97.7
2017-10-01T06:23:16.111Z,97.7
2017-10-01T06:24:15.300Z,97.7
2017-10-01T06:25:14.352Z,97.8
2017-10-01T06:26:13.655Z,97.8
2017-10-01T06:27:13.089Z,97.9
2017-10-01T06:28:12.147Z,97.9
2017-10-01T06:29:11.330Z,98
2017-10-01T06:30:10.889Z,98
2017-10-01T06:30:41.009Z,98
2017-10-01T06:31:11.380Z,97.9
2017-10-01T06:31:42.010Z,97.9
2017-10-01T06:32:12.633Z,97.8
2017-10-01T06:32:42.992Z,97.8
2017-10-01T06:34:07.792Z,97.7
2017-10-01T06:35:06.736Z,97.7
2017-10-01T06:36:05.917Z,97.7
2017-10-01T06:37:04.711Z,97.5
2017-10-01T06:38:03.770Z,97.4
2017-10-01T06:39:03.452Z,97.4
2017-10-01T06:40:02.131Z,97.5
2017-10-01T06:41:01.438Z,97.5
2017-10-01T06:42:01.124Z,97.6
2017-10-01T06:42:59.681Z,97.6
2017-10-01T06:43:59.234Z,97.7
2017-10-01T06:44:58.549Z,97.7
2017-10-01T06:45:57.494Z,97.7
2017-10-01T06:46:56.927Z,97.7
2017-10-01T06:47:55.865Z,97.6
2017-10-01T06:48:55.043Z,97.6
2017-10-01T06:49:54.349Z,97.5
2017-10-01T06:50:53.645Z,97.4
2017-10-01T06:51:52.951Z,97.2
2017-10-01T06:52:52.256Z,97.2
2017-10-01T06:53:51.190Z,97.1
2017-10-01T06:54:50.567Z,96.9
2017-10-01T06:55:49.237Z,97
2017-10-01T06:56:48.673Z,97
2017-10-01T06:57:47.599Z,97.1
2017-10-01T06:58:47.150Z,96.9
2017-10-01T06:59:45.830Z,96.9
2017-10-01T07:00:45.261Z,97
2017-10-01T07:01:44.192Z,96.9
2017-10-01T07:04:42.277Z,96.8
2017-10-01T07:05:41.082Z,96.9
2017-10-01T07:06:40.131Z,96.9
2017-10-01T07:07:39.702Z,96.9
2017-10-01T07:08:39.259Z,97
2017-10-01T07:09:38.060Z,96.9
2017-10-01T07:10:37.241Z,96.9
2017-10-01T07:11:07.856Z,96.9
2017-10-01T07:11:38.594Z,96.9
2017-10-01T07:12:35.507Z,96.9
2017-10-01T07:13:34.623Z,96.9
2017-10-01T07:14:33.937Z,96.9
2017-10-01T07:15:33.248Z,96.9
2017-10-01T07:16:32.434Z,96.9
2017-10-01T07:17:31.738Z,96.9
2017-10-01T07:19:29.928Z,96.9
2017-10-01T07:20:28.858Z,96.7
2017-10-01T07:21:28.417Z,96.7
2017-10-01T07:22:27.217Z,96.7
2017-10-01T07:23:26.522Z,96.7
2017-10-01T07:24:25.700Z,96.7
2017-10-01T07:25:25.260Z,96.7
2017-10-01T07:26:24.065Z,96.7
2017-10-01T07:27:23.247Z,96.8
2017-10-01T07:28:22.559Z,96.9
2017-10-01T07:29:21.861Z,96.9
2017-10-01T07:30:21.295Z,96.7
2017-10-01T07:31:19.973Z,96.8
2017-10-01T07:32:19.287Z,96.8
2017-10-01T07:34:17.858Z,96.9
2017-10-01T07:35:16.793Z,96.9
2017-10-01T07:36:15.847Z,96.9
2017-10-01T07:37:15.165Z,96.9
2017-10-01T07:38:14.596Z,96.8
2017-10-01T07:39:13.404Z,96.8
2017-10-01T07:40:12.961Z,96.8
2017-10-01T07:41:12.299Z,96.8
2017-10-01T07:42:11.220Z,96.7
2017-10-01T07:43:10.401Z,96.7
2017-10-01T07:44:09.590Z,96.8
2017-10-01T07:45:08.645Z,96.8
2017-10-01T07:46:07.832Z,96.8
2017-10-01T07:47:07.282Z,96.7
2017-10-01T07:48:06.470Z,96.7
2017-10-01T07:49:05.656Z,96.7
2017-10-01T07:50:04.592Z,96.7
2017-10-01T07:51:03.773Z,96.7
2017-10-01T07:52:02.955Z,96.8
2017-10-01T07:53:02.259Z,96.8
2017-10-01T07:54:01.558Z,96.7
2017-10-01T07:55:00.742Z,96.7
2017-10-01T07:55:59.426Z,96.7
2017-10-01T07:56:58.853Z,96.8
2017-10-01T07:57:58.154Z,96.8
2017-10-01T07:58:56.965Z,96.8
2017-10-01T07:59:56.518Z,96.6
2017-10-01T08:00:55.691Z,96.5
2017-10-01T08:01:55.125Z,96.4
2017-10-01T08:02:53.797Z,96.4
2017-10-01T08:03:52.984Z,96.5
2017-10-01T08:04:52.543Z,96.6
2017-10-01T08:05:51.213Z,96.6
2017-10-01T08:06:50.523Z,96.7
2017-10-01T08:07:20.890Z,96.7
2017-10-01T08:08:49.505Z,96.7
2017-10-01T08:09:48.430Z,96.8
2017-10-01T08:10:47.744Z,96.8
2017-10-01T08:11:46.432Z,96.9
2017-10-01T08:12:45.987Z,96.8
2017-10-01T08:13:45.047Z,96.7
2017-10-01T08:14:43.967Z,96.7
2017-10-01T08:15:43.149Z,96.6
2017-10-01T08:16:42.710Z,96.6
2017-10-01T08:17:41.767Z,96.6
2017-10-01T08:18:40.948Z,96.6
2017-10-01T08:19:40.027Z,96.6
2017-10-01T08:20:39.084Z,96.6
2017-10-01T08:21:38.389Z,96.6
2017-10-01T08:22:37.820Z,96.7
2017-10-01T08:23:36.624Z,96.7
2017-10-01T08:24:35.685Z,96.7
2017-10-01T08:26:34.253Z,96.8
2017-10-01T08:27:33.444Z,96.8
2017-10-01T08:28:32.506Z,96.8
2017-10-01T08:29:32.064Z,96.8
2017-10-01T08:30:31.117Z,96.8
2017-10-01T08:31:30.550Z,96.6
2017-10-01T08:32:29.226Z,96.4
2017-10-01T08:33:28.407Z,96.3
2017-10-01T08:34:27.713Z,96.2
2017-10-01T08:35:27.273Z,96.2
2017-10-01T08:36:26.202Z,96.2
2017-10-01T08:37:25.378Z,96.3
2017-10-01T08:38:24.948Z,96.3
2017-10-01T08:40:23.008Z,96.1
2017-10-01T08:41:22.441Z,96.1
2017-10-01T08:42:21.121Z,96.1
2017-10-01T08:43:20.554Z,96.1
2017-10-01T08:44:19.860Z,96.1
2017-10-01T08:45:18.915Z,96.1
2017-10-01T08:46:18.219Z,96.1
2017-10-01T08:47:17.272Z,96.1
2017-10-01T08:48:16.331Z,96
2017-10-01T08:49:15.510Z,96
2017-10-01T08:50:14.948Z,95.9
2017-10-01T08:51:13.869Z,95.8
2017-10-01T08:52:13.307Z,95.8
2017-10-01T08:53:12.493Z,95.8
2017-10-01T08:54:11.426Z,95.8
2017-10-01T08:55:10.735Z,95.8
2017-10-01T08:56:09.791Z,95.8
2017-10-01T08:57:09.225Z,95.8
2017-10-01T08:58:08.153Z,95.8
2017-10-01T08:59:07.203Z,95.8
2017-10-01T09:00:06.640Z,95.8
2017-10-01T09:02:04.838Z,95.5
2017-10-01T09:03:04.525Z,95.5
2017-10-01T09:04:03.458Z,95.5
2017-10-01T09:05:02.646Z,95.5
2017-10-01T09:06:01.825Z,95
2017-10-01T09:07:00.884Z,94.7
2017-10-01T09:07:59.936Z,94.7
2017-10-01T09:08:59.955Z,94.8
2017-10-01T09:09:58.634Z,95
2017-10-01T09:11:56.956Z,95.1
2017-10-01T09:12:56.142Z,94.9
2017-10-01T09:13:55.578Z,94.8
2017-10-01T09:14:54.377Z,94.6
2017-10-01T09:15:53.829Z,94
2017-10-01T09:16:52.518Z,94
2017-10-01T09:18:51.333Z,93.8
2017-10-01T09:19:50.642Z,94
2017-10-01T09:21:48.834Z,94.4
2017-10-01T09:22:47.889Z,94.4
2017-10-01T09:23:46.952Z,94.1
2017-10-01T09:24:45.998Z,93.9
2017-10-01T09:25:45.179Z,93.9
2017-10-01T09:26:44.618Z,93.7
2017-10-01T09:27:44.054Z,93.8
2017-10-01T09:28:42.853Z,93.9
2017-10-01T09:29:41.782Z,94
2017-10-01T09:30:41.348Z,93.9
2017-10-01T09:31:40.659Z,94
2017-10-01T09:32:39.714Z,94.1
2017-10-01T09:33:38.514Z,94.1
2017-10-01T09:35:37.085Z,93.9
2017-10-01T09:36:36.772Z,93.9
2017-10-01T09:37:35.572Z,93.6
2017-10-01T09:38:34.625Z,93.6
2017-10-01T09:39:33.807Z,93.6
2017-10-01T09:40:33.495Z,93.6
2017-10-01T09:41:32.422Z,93.4
2017-10-01T09:42:31.732Z,92.7
2017-10-01T09:43:31.163Z,92.8
2017-10-01T09:44:29.846Z,92.8
2017-10-01T09:45:29.151Z,92.6
2017-10-01T09:46:28.210Z,92.6
2017-10-01T09:47:27.508Z,92.6
2017-10-01T09:48:26.568Z,92.5
2017-10-01T09:49:25.753Z,92.5
2017-10-01T09:51:23.935Z,92.1
2017-10-01T09:52:23.624Z,92.2
2017-10-01T09:53:22.417Z,92.2
2017-10-01T09:54:21.726Z,92.2
2017-10-01T09:55:20.904Z,91.8
2017-10-01T09:56:20.208Z,91.7
2017-10-01T09:57:19.394Z,91.9
2017-10-01T09:58:18.323Z,92.1
2017-10-01T09:59:18.005Z,91.7
2017-10-01T10:00:17.055Z,91.1
2017-10-01T10:01:16.238Z,91.4
2017-10-01T10:03:14.427Z,92
2017-10-01T10:04:13.482Z,92.3
2017-10-01T10:05:13.045Z,92.3
2017-10-01T10:06:12.350Z,92.1
2017-10-01T10:07:11.407Z,92.1
2017-10-01T10:08:10.464Z,92
2017-10-01T10:09:09.650Z,92.1
2017-10-01T10:10:08.962Z,92
2017-10-01T10:11:08.520Z,92
2017-10-01T10:12:07.078Z,92
2017-10-01T10:13:06.269Z,91.8
2017-10-01T10:14:05.838Z,91.8
2017-10-01T10:15:05.145Z,91.8
2017-10-01T10:16:03.954Z,92
2017-10-01T10:17:03.383Z,92.1
2017-10-01T10:18:02.315Z,92.2
2017-10-01T10:19:01.496Z,92.3
2017-10-01T10:20:00.705Z,92.4
2017-10-01T10:20:59.888Z,92.1
2017-10-01T10:21:59.086Z,92
2017-10-01T10:22:58.017Z,92
2017-10-01T10:23:57.450Z,92
2017-10-01T10:24:56.758Z,92.1
2017-10-01T10:25:56.061Z,92.1
2017-10-01T10:26:55.367Z,92.2
2017-10-01T10:27:54.554Z,92.3
2017-10-01T10:28:53.609Z,92.3
2017-10-01T10:29:53.065Z,92.3
2017-10-01T10:30:51.864Z,92.1
2017-10-01T10:31:51.050Z,91.6
2017-10-01T10:32:50.108Z,91.3
2017-10-01T10:35:48.069Z,91.4
2017-10-01T10:37:46.261Z,91.7
2017-10-01T10:38:45.317Z,91.5
2017-10-01T10:39:15.934Z,91.5
2017-10-01T10:40:43.920Z,91.4
2017-10-01T10:41:43.099Z,91.4
2017-10-01T10:42:42.283Z,91.4
2017-10-01T10:43:41.468Z,91.1
2017-10-01T10:44:40.524Z,91.1
2017-10-01T10:45:39.828Z,90.9
2017-10-01T10:46:39.264Z,90.9
2017-10-01T10:47:38.187Z,90.9
2017-10-01T10:48:37.496Z,90.6
2017-10-01T10:49:36.932Z,90.6
2017-10-01T10:50:35.484Z,90.4
2017-10-01T10:51:34.665Z,90.5
2017-10-01T10:52:34.347Z,90.4
2017-10-01T10:53:33.528Z,90
2017-10-01T10:54:32.585Z,90.2
2017-10-01T10:55:31.896Z,90.2
2017-10-01T10:56:31.207Z,90.2
2017-10-01T10:57:30.401Z,90
2017-10-01T10:58:29.214Z,90.1
2017-10-01T10:59:28.647Z,89.8
2017-10-01T11:00:27.706Z,88.8
2017-10-01T11:01:27.017Z,88.9
2017-10-01T11:02:26.200Z,89.1
2017-10-01T11:03:25.252Z,88.7
2017-10-01T11:04:24.430Z,88.7
2017-10-01T11:05:23.609Z,88.6
2017-10-01T11:06:22.914Z,88.5
2017-10-01T11:07:21.976Z,88.7
2017-10-01T11:08:21.588Z,88.6
2017-10-01T11:10:19.409Z,88.2
2017-10-01T11:11:19.224Z,88.5
2017-10-01T11:12:18.024Z,88.2
2017-10-01T11:13:17.327Z,87.9
2017-10-01T11:14:16.890Z,87.5
2017-10-01T11:15:15.700Z,87.4
2017-10-01T11:16:14.879Z,86.7
2017-10-01T11:17:14.180Z,86.7
2017-10-01T11:18:13.741Z,86.4
2017-10-01T11:19:12.683Z,86.2
2017-10-01T11:20:12.117Z,86.2
2017-10-01T11:21:10.791Z,86.5
2017-10-01T11:22:10.229Z,86.5
2017-10-01T11:23:09.413Z,86.4
2017-10-01T11:24:08.861Z,86.4
2017-10-01T11:25:08.037Z,86.4
2017-10-01T11:26:06.964Z,86.1
2017-10-01T11:27:05.895Z,86
2017-10-01T11:28:05.456Z,86
2017-10-01T11:29:04.517Z,84.8
2017-10-01T11:30:03.581Z,84.3
2017-10-01T11:31:02.765Z,84.3
2017-10-01T11:32:02.577Z,81.8
2017-10-01T11:33:01.403Z,83.2
2017-10-01T11:34:59.856Z,84
2017-10-01T11:35:59.290Z,84
2017-10-01T11:37:57.349Z,82.9
2017-10-01T11:38:56.662Z,82.8
2017-10-01T11:39:55.967Z,82.8
2017-10-01T11:40:55.149Z,82.8
2017-10-01T11:41:54.200Z,83
2017-10-01T11:42:53.506Z,82.4
2017-10-01T11:43:52.932Z,81.7
2017-10-01T11:44:51.737Z,82.2
2017-10-01T11:45:51.046Z,82.7
2017-10-01T11:46:50.233Z,82.8
2017-10-01T11:47:49.664Z,81.9
2017-10-01T11:48:48.972Z,82.3
2017-10-01T11:49:47.900Z,81.9
2017-10-01T11:50:47.073Z,81.8
2017-10-01T11:51:46.248Z,82.3
2017-10-01T11:52:45.425Z,82.9
2017-10-01T11:53:44.769Z,83.1
2017-10-01T11:54:44.201Z,83.2
2017-10-01T11:55:43.141Z,82.5
2017-10-01T11:56:42.570Z,80.2
2017-10-01T11:57:41.747Z,80.2
2017-10-01T11:58:41.056Z,79.7
2017-10-01T11:59:40.113Z,80.1
2017-10-01T12:00:39.302Z,81.2
2017-10-01T12:01:38.615Z,81.4
2017-10-01T12:02:38.047Z,80.3
2017-10-01T12:03:36.970Z,79.2
2017-10-01T12:04:36.269Z,79.3
2017-10-01T12:05:35.450Z,80.1
2017-10-01T12:06:34.503Z,80.6
2017-10-01T12:07:33.807Z,79.6
2017-10-01T12:08:33.360Z,78.7
2017-10-01T12:09:32.158Z,79.1
2017-10-01T12:10:31.605Z,78.7
2017-10-01T12:11:30.911Z,79.1
2017-10-01T12:12:30.357Z,78.9
2017-10-01T12:13:29.159Z,79.9
2017-10-01T12:14:28.473Z,80.8
2017-10-01T12:14:58.711Z,80.8
2017-10-01T12:15:29.329Z,80.8
2017-10-01T12:15:59.580Z,80.8
2017-10-01T12:17:25.811Z,78.3
2017-10-01T12:18:25.622Z,78.4
2017-10-01T12:19:24.299Z,78.9
2017-10-01T12:20:23.482Z,79.6
2017-10-01T12:21:22.803Z,78.7
2017-10-01T12:22:21.730Z,79
2017-10-01T12:23:21.290Z,78.9
2017-10-01T12:24:20.594Z,78.7
2017-10-01T12:25:19.903Z,78.4
2017-10-01T12:26:18.957Z,78.4
2017-10-01T12:27:18.014Z,79.9
2017-10-01T12:28:17.585Z,79.2
2017-10-01T12:29:16.512Z,79.2
2017-10-01T12:30:15.693Z,78
2017-10-01T12:31:14.872Z,78.1
2017-10-01T12:32:14.192Z,78.1
2017-10-01T12:33:13.753Z,78.1
2017-10-01T12:34:13.061Z,78.5
2017-10-01T12:35:12.116Z,78.2
2017-10-01T12:36:11.427Z,78.1
2017-10-01T12:37:10.730Z,77.6
2017-10-01T12:38:09.918Z,76.7
2017-10-01T12:39:08.729Z,77.5
2017-10-01T12:40:08.040Z,77.6
2017-10-01T12:41:07.363Z,77.5
2017-10-01T12:42:06.423Z,77.2
2017-10-01T12:43:05.604Z,76.7
2017-10-01T12:44:05.039Z,76.5
2017-10-01T12:45:04.466Z,76
2017-10-01T12:46:03.399Z,75.5
2017-10-01T12:47:02.708Z,75.6
2017-10-01T12:48:02.143Z,76.1
2017-10-01T12:49:01.324Z,74.2
2017-10-01T12:50:59.766Z,74.8
2017-10-01T12:51:58.944Z,74.8
2017-10-01T12:52:58.250Z,75.8
2017-10-01T12:53:56.932Z,75.4
2017-10-01T12:54:56.229Z,74.7
2017-10-01T12:55:55.916Z,73.8
2017-10-01T12:56:54.966Z,73.6
2017-10-01T12:57:54.301Z,74.6
2017-10-01T12:58:53.489Z,75
2017-10-01T12:59:24.225Z,75
2017-10-01T12:59:54.340Z,75
2017-10-01T13:00:52.130Z,74.6
2017-10-01T13:01:50.931Z,74.6
2017-10-01T13:02:50.489Z,74.8
2017-10-01T13:03:49.791Z,75.6
2017-10-01T13:05:47.732Z,75.8
2017-10-01T13:06:47.684Z,76
2017-10-01T13:07:46.360Z,76
2017-10-01T13:08:46.178Z,76
2017-10-01T13:09:45.363Z,75.6
2017-10-01T13:10:44.174Z,76.2
2017-10-01T13:11:43.610Z,76.1
2017-10-01T13:12:42.662Z,76.3
2017-10-01T13:13:42.217Z,76.3
2017-10-01T13:14:41.402Z,76.2
2017-10-01T13:15:40.710Z,75.6
2017-10-01T13:16:39.512Z,75.5
2017-10-01T13:17:38.814Z,74.9
2017-10-01T13:18:38.388Z,74.8
2017-10-01T13:19:37.571Z,74.5
2017-10-01T13:20:36.751Z,75.4
2017-10-01T13:21:35.939Z,75.3
2017-10-01T13:22:35.236Z,75.5
2017-10-01T13:23:34.294Z,75.8
2017-10-01T13:24:33.353Z,75.7
2017-10-01T13:25:32.662Z,75.7
2017-10-01T13:26:32.102Z,75.7
2017-10-01T13:27:31.401Z,75.6
2017-10-01T13:28:30.841Z,74.8
2017-10-01T13:29:29.765Z,75.4
2017-10-01T13:30:28.825Z,74.7
2017-10-01T13:31:28.388Z,74.6
2017-10-01T13:32:27.199Z,74.9
2017-10-01T13:33:27.006Z,75.6
2017-10-01T13:34:25.943Z,76